KSSC/SSC METAR and TAF weather

Enter ICAO airport designator
Station Type Date Time Source
KSSC METAR 2024/02/26 16:55 UTC NOAA

KSSC 261655Z 20012KT 10SM CLR 18/03 A3017 RMK AO2A SLP218 T01830026 $


Station Type Date Time Source
KSSC Decoded METAR 2024/02/26 16:55 UTC NOAA

Shaw Air Force Base, SC, United States (KSSC) 33-58N 080-29W 73M
Feb 26, 2024 - 11:55 AM EST / 2024.02.26 1655 UTC
Wind: from the SSW (200 degrees) at 14 MPH (12 KT):0
Visibility: 10 mile(s):0
Sky conditions: clear
Temperature: 64.9 F (18.3 C)
Dew Point: 36.7 F (2.6 C)
Relative Humidity: 35%
Pressure (altimeter): 30.17 in. Hg (1021 hPa)
ob: KSSC 261655Z 20012KT 10SM CLR 18/03 A3017 RMK AO2A SLP218 T01830026
cycle: 17

Station Type Date Time Source
KSSC TAF 2024/02/26 16:09 UTC NOAA